Time;durP1;ratioP1;P1;durP2;ratioP2;P2;SDS_P1;SDS_P2;PMS_P1;PMS_P2;Temp;Humidity;BMP_temperature;BMP_pressure;BME280_temperature;BME280_humidity;BME280_pressure;Samples;Min_cycle;Max_cycle;Signal;HPM_P1;HPM_P2
2021/07/19 00:01:55;;;;;;;4.95;4.45;;;;;;;25.01;57.64;101231.88;5027683;28;20033;-85
2021/07/19 00:04:21;;;;;;;5.40;4.53;;;;;;;25.00;58.13;101232.88;5030990;28;20476;-85
2021/07/19 00:06:47;;;;;;;6.82;5.00;;;;;;;24.91;57.89;101224.88;5031637;28;20527;-85
2021/07/19 00:09:13;;;;;;;7.95;5.22;;;;;;;24.89;58.51;101229.59;5031518;28;20105;-85
2021/07/19 00:11:38;;;;;;;7.05;4.90;;;;;;;24.76;58.60;101228.53;5031461;28;20025;-85
2021/07/19 00:14:04;;;;;;;5.35;4.72;;;;;;;24.70;59.16;101225.56;5034068;28;20128;-85
2021/07/19 00:16:30;;;;;;;6.88;5.78;;;;;;;24.69;58.96;101225.72;5035589;28;20101;-85
2021/07/19 00:18:55;;;;;;;5.80;4.78;;;;;;;24.52;59.45;101222.28;5034775;28;20025;-85
2021/07/19 00:21:21;;;;;;;6.75;5.10;;;;;;;24.57;59.37;101225.28;5015461;28;20383;-85
2021/07/19 00:23:47;;;;;;;9.90;4.82;;;;;;;24.59;58.63;101222.44;5015603;28;20018;-85
2021/07/19 00:26:12;;;;;;;5.03;4.50;;;;;;;24.59;58.63;101222.44;5015820;28;20045;-85
2021/07/19 00:28:37;;;;;;;9.55;4.88;;;;;;;24.55;59.39;101224.63;5015604;28;20025;-85
2021/07/19 00:31:03;;;;;;;5.82;4.57;;;;;;;24.36;59.38;101223.16;5020710;28;20028;-85
2021/07/19 00:33:29;;;;;;;6.85;5.15;;;;;;;24.38;59.70;101220.31;5034663;28;20030;-85
2021/07/19 00:35:54;;;;;;;6.47;4.57;;;;;;;24.36;60.26;101225.84;5016144;28;20580;-85
2021/07/19 00:38:20;;;;;;;8.23;4.78;;;;;;;24.27;59.70;101210.78;5015421;28;20030;-85
2021/07/19 00:40:45;;;;;;;6.78;4.88;;;;;;;24.26;60.03;101217.19;5015291;28;20034;-85
2021/07/19 00:43:10;;;;;;;6.75;4.85;;;;;;;24.18;60.27;101210.00;5015052;28;20366;-85
2021/07/19 00:45:36;;;;;;;5.03;4.53;;;;;;;24.15;60.48;101213.88;5015247;28;20033;-85
2021/07/19 00:48:04;;;;;;;5.25;4.75;;;;;;;24.20;60.82;101215.19;5015213;28;20388;-85
2021/07/19 00:50:33;;;;;;;7.25;4.82;;;;;;;24.17;60.99;101213.72;5032720;28;20065;-86
2021/07/19 00:53:00;;;;;;;8.60;4.70;;;;;;;24.09;61.16;101216.41;5034621;28;20124;-85
2021/07/19 00:55:31;;;;;;;6.97;4.97;;;;;;;24.22;61.21;101210.50;5034759;28;20022;-85
2021/07/19 00:57:58;;;;;;;4.88;4.38;;;;;;;24.06;61.44;101209.53;5025066;28;20510;-85
2021/07/19 01:00:23;;;;;;;9.85;5.40;;;;;;;24.00;61.28;101206.72;5015070;28;20029;-85
2021/07/19 01:02:49;;;;;;;5.88;4.63;;;;;;;24.01;61.80;101214.56;5014660;28;20073;-85
2021/07/19 01:05:16;;;;;;;7.97;4.82;;;;;;;24.00;61.86;101212.09;5014773;28;20034;-85
2021/07/19 01:07:43;;;;;;;6.47;5.05;;;;;;;23.97;61.48;101213.25;5014773;28;20030;-85
2021/07/19 01:10:14;;;;;;;8.07;5.40;;;;;;;23.90;61.70;101215.78;5014889;28;20030;-85
2021/07/19 01:12:54;;;;;;;6.78;4.30;;;;;;;23.96;61.68;101211.59;5014617;28;20069;-85
2021/07/19 01:15:21;;;;;;;6.10;4.72;;;;;;;23.76;62.46;101211.94;5017344;28;20387;-85
2021/07/19 01:17:47;;;;;;;5.28;4.78;;;;;;;23.76;62.48;101217.31;5023964;28;20021;-86
2021/07/19 01:20:13;;;;;;;5.95;5.10;;;;;;;23.73;62.32;101206.91;5034330;28;20026;-85
2021/07/19 01:23:27;;;;;;;7.53;5.30;;;;;;;24.07;61.61;101205.88;5034128;28;20514;-85
2021/07/19 01:26:01;;;;;;;7.00;5.35;;;;;;;23.99;62.01;101200.50;5031928;28;20034;-86
2021/07/19 01:28:38;;;;;;;6.00;4.70;;;;;;;23.92;62.52;101202.22;5034269;28;20030;-85
2021/07/19 01:31:16;;;;;;;7.43;5.00;;;;;;;23.95;62.18;101193.81;5025378;28;20041;-85
2021/07/19 01:33:46;;;;;;;5.80;5.07;;;;;;;23.82;62.69;101198.91;5032868;28;20034;-85
2021/07/19 01:36:14;;;;;;;6.97;5.15;;;;;;;23.81;62.72;101197.22;5034308;28;20438;-85
2021/07/19 01:38:41;;;;;;;5.68;4.78;;;;;;;23.66;62.80;101189.03;5034119;28;20082;-85
2021/07/19 01:41:07;;;;;;;5.95;4.65;;;;;;;23.71;63.12;101197.38;5034005;28;20022;-85
2021/07/19 01:43:34;;;;;;;6.75;5.57;;;;;;;23.68;63.01;101195.88;5034047;28;20022;-85
2021/07/19 01:46:01;;;;;;;7.90;5.25;;;;;;;23.67;62.92;101191.50;5033966;28;20021;-85
2021/07/19 01:48:29;;;;;;;5.82;4.93;;;;;;;23.66;63.32;101197.91;5014432;28;20029;-85
2021/07/19 01:50:55;;;;;;;6.80;4.85;;;;;;;23.58;63.01;101192.56;5013944;28;20483;-85
2021/07/19 01:53:21;;;;;;;7.82;5.00;;;;;;;23.58;63.08;101187.19;5013720;28;20032;-85
2021/07/19 01:55:48;;;;;;;5.80;4.82;;;;;;;23.53;63.00;101190.38;5014003;28;20256;-85
2021/07/19 01:58:14;;;;;;;8.27;5.30;;;;;;;23.48;63.06;101192.75;5013877;28;20108;-85
2021/07/19 02:00:40;;;;;;;5.53;4.63;;;;;;;23.45;63.46;101193.06;5015279;28;20425;-85
2021/07/19 02:03:05;;;;;;;6.55;4.32;;;;;;;23.47;63.24;101196.41;5013679;28;20038;-85
2021/07/19 02:05:31;;;;;;;7.68;5.43;;;;;;;23.44;63.60;101193.22;5013942;28;20108;-85
2021/07/19 02:07:59;;;;;;;7.95;5.25;;;;;;;23.49;63.62;101194.41;5013701;28;20033;-85
2021/07/19 02:10:25;;;;;;;5.03;4.18;;;;;;;23.38;63.71;101197.44;5013735;28;20057;-85
2021/07/19 02:12:53;;;;;;;6.40;5.35;;;;;;;23.41;63.34;101190.91;5013569;28;20029;-85
2021/07/19 02:15:20;;;;;;;6.32;5.15;;;;;;;23.33;63.72;101197.94;5014611;28;20060;-85
2021/07/19 02:17:57;;;;;;;5.40;4.45;;;;;;;23.45;63.23;101195.75;5013538;28;20041;-85
2021/07/19 02:20:25;;;;;;;8.20;5.35;;;;;;;23.26;64.07;101194.28;5013476;28;20538;-85
2021/07/19 02:22:51;;;;;;;7.10;4.72;;;;;;;23.18;64.58;101196.94;5013467;28;20499;-85
2021/07/19 02:25:16;;;;;;;5.93;5.05;;;;;;;23.20;64.01;101194.91;5013434;28;20057;-85
2021/07/19 02:27:46;;;;;;;7.70;5.45;;;;;;;23.19;64.70;101185.22;5013270;28;20018;-85
2021/07/19 02:30:14;;;;;;;5.13;4.63;;;;;;;22.95;65.24;101188.72;5013913;28;20025;-85
2021/07/19 02:32:44;;;;;;;7.32;5.57;;;;;;;23.07;64.96;101190.09;5013039;28;20099;-85
2021/07/19 02:35:12;;;;;;;6.15;5.18;;;;;;;23.13;64.76;101192.09;5012808;28;20022;-85
2021/07/19 02:37:39;;;;;;;5.82;4.97;;;;;;;23.11;65.04;101186.06;5012851;28;20034;-85
2021/07/19 02:40:07;;;;;;;9.73;5.45;;;;;;;23.18;65.12;101183.53;5014395;28;20139;-85
2021/07/19 02:42:39;;;;;;;6.88;5.38;;;;;;;23.28;64.78;101183.38;5012910;28;20084;-85
2021/07/19 02:45:10;;;;;;;6.57;5.32;;;;;;;23.24;64.56;101179.34;5032140;28;20021;-85
2021/07/19 02:47:37;;;;;;;6.65;5.15;;;;;;;22.92;65.51;101181.81;5033034;28;20028;-85
2021/07/19 02:50:04;;;;;;;6.65;5.53;;;;;;;22.99;66.32;101181.19;5032657;28;20032;-85
2021/07/19 02:52:30;;;;;;;6.20;5.60;;;;;;;22.91;66.45;101180.16;5032474;28;20033;-85
2021/07/19 02:54:57;;;;;;;6.22;5.53;;;;;;;22.91;66.42;101179.34;5032613;28;20037;-85
2021/07/19 02:57:22;;;;;;;6.03;5.28;;;;;;;22.84;66.05;101181.00;5032695;28;20025;-85
2021/07/19 02:59:47;;;;;;;6.57;5.13;;;;;;;22.82;65.74;101174.97;5018886;28;20021;-85
2021/07/19 03:02:18;;;;;;;6.88;5.05;;;;;;;22.89;66.31;101182.19;5030794;28;20025;-85
2021/07/19 03:04:44;;;;;;;8.35;6.13;;;;;;;22.65;67.52;101179.44;5032314;28;20040;-85
2021/07/19 03:07:11;;;;;;;9.73;6.22;;;;;;;22.65;67.24;101168.75;5032724;28;20017;-85
2021/07/19 03:09:40;;;;;;;11.90;6.05;;;;;;;22.64;67.47;101173.25;5032270;28;20186;-85
2021/07/19 03:12:07;;;;;;;9.35;5.88;;;;;;;22.69;67.83;101172.75;5032553;28;20030;-85
2021/07/19 03:14:35;;;;;;;9.35;5.88;;;;;;;22.70;67.58;101166.41;5032239;28;20052;-85
2021/07/19 03:17:02;;;;;;;10.32;5.60;;;;;;;22.68;67.65;101161.22;5020822;28;20124;-85
2021/07/19 03:19:28;;;;;;;8.25;5.65;;;;;;;22.74;67.75;101167.75;5026471;28;20025;-85
2021/07/19 03:21:58;;;;;;;8.10;5.70;;;;;;;22.77;67.72;101164.78;5031865;28;20043;-85
2021/07/19 03:24:25;;;;;;;6.45;5.75;;;;;;;22.75;68.00;101156.06;5032456;28;20026;-85
2021/07/19 03:26:51;;;;;;;7.32;5.93;;;;;;;22.72;68.08;101156.38;5030888;28;20068;-85
2021/07/19 03:29:18;;;;;;;7.35;5.63;;;;;;;22.72;68.17;101156.38;5031584;28;20033;-85
2021/07/19 03:31:44;;;;;;;7.60;6.00;;;;;;;22.70;67.70;101164.56;5031935;28;20051;-85
2021/07/19 03:34:11;;;;;;;8.52;5.93;;;;;;;22.66;68.07;101157.06;5018210;28;20472;-85
2021/07/19 03:36:37;;;;;;;6.03;5.43;;;;;;;22.63;68.15;101160.03;5012345;28;20026;-85
2021/07/19 03:39:05;;;;;;;8.52;5.35;;;;;;;22.68;67.92;101155.03;5012143;28;20044;-85
2021/07/19 03:41:31;;;;;;;5.95;5.30;;;;;;;22.61;68.15;101157.56;5012213;28;20060;-85
2021/07/19 03:43:58;;;;;;;6.80;6.05;;;;;;;22.61;68.04;101154.88;5012202;28;20053;-85
2021/07/19 03:46:25;;;;;;;7.80;5.75;;;;;;;22.53;68.00;101153.03;5012151;28;20072;-85
2021/07/19 03:48:51;;;;;;;7.05;5.78;;;;;;;22.53;68.23;101153.03;5024867;28;20388;-85
2021/07/19 03:51:17;;;;;;;6.25;5.65;;;;;;;22.54;68.40;101154.69;5014150;28;20038;-85
2021/07/19 03:53:43;;;;;;;8.45;5.63;;;;;;;22.48;68.36;101158.00;5012128;28;20397;-85
2021/07/19 03:56:09;;;;;;;6.63;5.78;;;;;;;22.43;68.32;101160.34;5012154;28;20029;-85
2021/07/19 03:58:36;;;;;;;8.65;5.55;;;;;;;22.39;68.25;101153.63;5012228;28;20507;-85
2021/07/19 04:01:02;;;;;;;10.13;5.75;;;;;;;22.38;68.19;101155.47;5013103;28;20026;-85
2021/07/19 04:03:33;;;;;;;7.05;5.13;;;;;;;22.35;68.46;101147.81;5012070;28;20033;-85
2021/07/19 04:06:01;;;;;;;8.85;6.13;;;;;;;22.38;68.23;101154.66;5011984;28;20084;-85
2021/07/19 04:08:31;;;;;;;7.53;5.25;;;;;;;22.39;68.16;101161.66;5011979;28;20076;-85
2021/07/19 04:10:57;;;;;;;7.63;5.63;;;;;;;22.27;68.20;101154.94;5011815;28;20048;-85
2021/07/19 04:13:23;;;;;;;7.47;6.10;;;;;;;22.20;68.75;101160.09;5011701;28;20026;-85
2021/07/19 04:15:51;;;;;;;7.85;5.93;;;;;;;22.23;68.68;101167.78;5020819;28;20030;-85
2021/07/19 04:18:23;;;;;;;10.38;5.72;;;;;;;22.33;68.66;101159.63;5031191;28;20468;-85
2021/07/19 04:20:50;;;;;;;8.32;6.22;;;;;;;22.11;69.25;101167.22;5031398;28;20052;-85
2021/07/19 04:23:16;;;;;;;6.88;5.55;;;;;;;22.06;69.64;101164.22;5031409;28;20036;-85
2021/07/19 04:25:44;;;;;;;6.72;5.97;;;;;;;22.05;69.69;101161.69;5031621;28;20025;-85
2021/07/19 04:28:09;;;;;;;10.25;5.75;;;;;;;21.98;69.71;101158.84;5026356;28;20026;-85
2021/07/19 04:30:37;;;;;;;8.15;5.63;;;;;;;22.11;69.43;101159.19;5020832;28;20021;-85
2021/07/19 04:33:04;;;;;;;7.18;6.07;;;;;;;22.12;69.66;101162.75;5031151;28;20392;-85
2021/07/19 04:35:29;;;;;;;9.95;6.50;;;;;;;22.07;69.62;101160.53;5031414;28;20021;-85
2021/07/19 04:37:55;;;;;;;6.90;5.45;;;;;;;22.10;69.56;101154.88;5031573;28;20030;-85
2021/07/19 04:40:22;;;;;;;7.05;5.88;;;;;;;22.10;69.52;101154.88;5031493;28;20545;-85
2021/07/19 04:42:48;;;;;;;7.25;6.13;;;;;;;22.06;69.74;101158.88;5031284;28;20021;-85
2021/07/19 04:45:16;;;;;;;8.32;6.43;;;;;;;22.08;69.82;101156.88;5022394;28;20080;-85
2021/07/19 04:47:42;;;;;;;9.50;7.00;;;;;;;21.91;70.66;101147.09;5024339;28;20079;-85
2021/07/19 04:50:08;;;;;;;10.15;6.60;;;;;;;21.76;71.30;101149.53;5031218;28;20033;-85
2021/07/19 04:52:33;;;;;;;9.60;6.78;;;;;;;21.91;71.36;101149.78;5030931;28;20535;-85
2021/07/19 04:55:00;;;;;;;6.78;5.63;;;;;;;22.02;70.70;101157.50;5031312;28;20116;-85
2021/07/19 04:57:27;;;;;;;8.25;6.50;;;;;;;22.17;70.25;101161.22;5029788;28;20024;-85
2021/07/19 04:59:55;;;;;;;9.82;6.03;;;;;;;22.21;70.42;101166.25;5013423;28;20036;-85
2021/07/19 05:02:22;;;;;;;9.15;6.35;;;;;;;22.21;70.42;101161.75;5015545;28;20736;-85
2021/07/19 05:04:50;;;;;;;7.20;6.28;;;;;;;22.12;70.37;101160.06;5014829;28;20029;-85
2021/07/19 05:07:19;;;;;;;11.52;6.78;;;;;;;22.07;70.75;101157.84;5015013;28;20029;-85
2021/07/19 05:09:46;;;;;;;7.55;6.20;;;;;;;22.09;70.92;101161.19;5014991;28;20084;-85
2021/07/19 05:12:15;;;;;;;7.65;6.32;;;;;;;22.21;70.86;101160.91;5014840;28;20084;-85
2021/07/19 05:14:41;;;;;;;7.38;5.80;;;;;;;22.18;70.86;101162.91;5015724;28;20068;-85
2021/07/19 05:17:11;;;;;;;8.15;5.72;;;;;;;22.35;70.60;101152.28;5015652;28;20101;-85
2021/07/19 05:19:39;;;;;;;8.35;6.20;;;;;;;22.26;70.68;101164.81;5014594;28;20045;-85
2021/07/19 05:22:12;;;;;;;8.45;5.63;;;;;;;22.43;70.56;101159.50;5014768;28;20030;-85
2021/07/19 05:24:37;;;;;;;7.13;5.82;;;;;;;22.26;70.74;101164.81;5024372;28;20025;-85
2021/07/19 05:27:05;;;;;;;7.88;6.40;;;;;;;22.33;70.40;101156.97;5017309;28;20036;-84
2021/07/19 05:29:30;;;;;;;9.48;5.28;;;;;;;22.30;70.39;101162.66;5034502;28;20789;-85
2021/07/19 05:31:56;;;;;;;8.02;6.03;;;;;;;22.33;70.23;101163.19;5028187;28;20022;-84
2021/07/19 05:34:21;;;;;;;7.72;5.88;;;;;;;22.35;70.27;101157.63;5026943;28;20031;-86
2021/07/19 05:36:47;;;;;;;7.65;5.53;;;;;;;22.42;70.05;101164.03;5029712;28;20033;-84
2021/07/19 05:39:12;;;;;;;9.73;5.72;;;;;;;22.44;70.27;101167.38;5031937;28;20029;-85
2021/07/19 05:41:38;;;;;;;9.68;6.03;;;;;;;22.49;70.50;101165.06;5017631;28;20026;-85
2021/07/19 05:44:04;;;;;;;7.78;5.60;;;;;;;22.53;70.48;101166.41;5025955;28;20091;-85
2021/07/19 05:46:29;;;;;;;9.75;6.18;;;;;;;22.55;70.44;101163.53;5033774;28;20033;-85
2021/07/19 05:48:55;;;;;;;9.43;5.90;;;;;;;22.58;70.57;101166.72;5032575;28;20033;-84
2021/07/19 05:51:20;;;;;;;9.52;5.78;;;;;;;22.61;70.59;101162.91;5031976;28;20033;-85
2021/07/19 05:53:45;;;;;;;6.75;6.05;;;;;;;22.66;70.93;101159.72;5014280;28;20041;-85
2021/07/19 05:56:11;;;;;;;10.95;7.13;;;;;;;22.72;71.01;101164.41;5013851;28;20053;-85
2021/07/19 05:58:36;;;;;;;7.13;6.30;;;;;;;22.78;70.78;101163.75;5026305;28;20502;-88
2021/07/19 06:01:02;;;;;;;7.30;6.40;;;;;;;22.83;71.09;101161.44;5017451;28;20057;-86
2021/07/19 06:03:28;;;;;;;6.82;5.95;;;;;;;22.86;71.17;101161.06;5013381;28;20037;-85
2021/07/19 06:05:53;;;;;;;7.45;6.63;;;;;;;22.96;70.76;101156.38;5013778;28;20431;-86
2021/07/19 06:08:18;;;;;;;7.35;6.25;;;;;;;23.02;70.91;101164.75;5013996;28;20037;-86
2021/07/19 06:10:44;;;;;;;7.65;6.22;;;;;;;23.10;71.01;101157.59;5013841;28;20033;-85
2021/07/19 06:13:11;;;;;;;6.72;6.03;;;;;;;23.24;70.98;101163.28;5013409;28;20033;-85
2021/07/19 06:15:36;;;;;;;9.13;7.05;;;;;;;23.30;70.69;101163.47;5014866;28;20124;-85
2021/07/19 06:18:01;;;;;;;11.27;6.93;;;;;;;23.50;70.47;101157.69;5021099;28;20471;-85
2021/07/19 06:20:30;;;;;;;8.98;6.93;;;;;;;24.18;68.35;101150.16;5033247;28;20078;-85
2021/07/19 06:23:00;;;;;;;9.02;6.90;;;;;;;24.97;65.93;101155.34;5031334;28;20029;-85
2021/07/19 06:25:29;;;;;;;6.83;6.23;;;;;;;25.56;63.81;101155.50;5032918;28;20029;-85
2021/07/19 06:27:54;;;;;;;7.90;6.15;;;;;;;25.86;61.25;101158.19;5032491;28;20106;-86
2021/07/19 06:30:20;;;;;;;7.85;6.03;;;;;;;26.12;60.00;101160.41;5032504;28;20112;-86
2021/07/19 06:32:45;;;;;;;8.73;6.75;;;;;;;26.88;58.56;101155.44;5015410;28;20061;-85
2021/07/19 06:35:11;;;;;;;6.72;5.40;;;;;;;27.75;55.94;101149.88;5035385;28;20036;-85
2021/07/19 06:37:37;;;;;;;7.45;5.45;;;;;;;28.49;53.67;101152.63;5048605;28;20056;-85
2021/07/19 06:40:04;;;;;;;9.45;5.85;;;;;;;29.06;51.62;101157.72;5043716;28;20053;-86
2021/07/19 06:42:30;;;;;;;9.77;5.32;;;;;;;29.86;49.40;101157.66;5030621;28;20373;-85
2021/07/19 06:44:57;;;;;;;7.05;5.25;;;;;;;30.55;48.06;101150.66;5032135;28;20037;-85
2021/07/19 06:47:23;;;;;;;8.23;5.20;;;;;;;31.18;45.91;101157.91;5029438;28;20037;-85
2021/07/19 06:49:49;;;;;;;5.63;5.10;;;;;;;31.78;44.82;101154.59;5025419;28;20144;-86
2021/07/19 06:52:14;;;;;;;7.50;5.25;;;;;;;32.32;44.51;101153.91;5032130;28;20120;-85
2021/07/19 06:54:40;;;;;;;6.95;4.63;;;;;;;33.02;43.12;101153.28;5030600;28;20063;-85
2021/07/19 06:57:06;;;;;;;6.15;4.10;;;;;;;33.35;41.65;101151.88;5032480;28;20043;-85
2021/07/19 06:59:31;;;;;;;6.25;4.65;;;;;;;33.71;40.45;101144.50;5019762;28;20468;-85
2021/07/19 07:01:56;;;;;;;8.80;4.05;;;;;;;34.25;38.92;101153.25;5022267;28;20021;-85
2021/07/19 07:04:22;;;;;;;7.10;4.78;;;;;;;34.56;37.81;101151.91;5012587;28;20101;-85
2021/07/19 07:06:47;;;;;;;7.18;4.25;;;;;;;34.96;36.52;101152.84;5015101;28;20484;-85
2021/07/19 07:09:12;;;;;;;6.80;4.30;;;;;;;35.50;36.67;101144.91;5025792;28;20026;-85
2021/07/19 07:11:38;;;;;;;4.95;4.38;;;;;;;36.22;37.07;101145.81;5031635;28;20116;-85
2021/07/19 07:14:04;;;;;;;31.08;7.60;;;;;;;36.28;35.12;101149.44;5031449;28;20087;-85
2021/07/19 07:16:30;;;;;;;16.73;5.13;;;;;;;36.69;35.29;101141.59;5032123;28;20022;-85
2021/07/19 07:18:56;;;;;;;23.38;6.80;;;;;;;37.06;34.29;101138.88;5031262;28;20033;-85
2021/07/19 07:21:22;;;;;;;7.22;4.30;;;;;;;37.18;33.83;101138.69;5014221;28;20029;-86
2021/07/19 07:23:47;;;;;;;7.00;4.25;;;;;;;37.64;32.65;101132.66;5031012;28;20056;-90
2021/07/19 07:26:13;;;;;;;5.75;4.07;;;;;;;37.54;33.16;101138.06;5023723;28;20057;-85
2021/07/19 07:28:38;;;;;;;8.30;4.60;;;;;;;37.62;32.78;101134.81;5019415;28;20022;-85
2021/07/19 07:31:04;;;;;;;10.27;4.60;;;;;;;37.45;32.29;101133.09;5014220;28;20034;-84
2021/07/19 07:33:29;;;;;;;5.75;3.63;;;;;;;37.54;32.91;101138.06;5031519;28;20033;-83
2021/07/19 07:35:55;;;;;;;8.07;4.55;;;;;;;38.07;31.93;101133.34;5030960;28;20064;-83
2021/07/19 07:38:20;;;;;;;9.43;4.20;;;;;;;38.22;31.75;101138.06;5023234;28;20124;-83
2021/07/19 07:40:48;;;;;;;9.85;4.63;;;;;;;38.28;31.67;101140.50;5012114;28;20030;-83
2021/07/19 07:43:13;;;;;;;33.47;7.22;;;;;;;38.47;31.10;101145.47;5030213;28;20067;-84
2021/07/19 07:45:39;;;;;;;9.02;3.80;;;;;;;38.79;30.94;101137.00;5030900;28;20054;-84
2021/07/19 07:48:04;;;;;;;15.73;5.25;;;;;;;39.41;30.72;101137.69;5034009;28;20025;-84
2021/07/19 07:50:30;;;;;;;7.97;4.10;;;;;;;39.65;30.40;101140.63;5032997;28;20117;-86
2021/07/19 07:52:55;;;;;;;5.25;3.75;;;;;;;40.12;29.49;101135.72;5026514;28;20391;-84
2021/07/19 07:55:21;;;;;;;15.98;4.47;;;;;;;40.44;29.28;101137.19;5030749;28;20036;-87
2021/07/19 07:57:46;;;;;;;7.72;4.20;;;;;;;40.49;28.96;101137.13;5017539;28;20365;-85
2021/07/19 08:00:18;;;;;;;28.83;6.03;;;;;;;40.89;28.65;101140.66;5028089;28;20037;-86
2021/07/19 08:02:44;;;;;;;6.38;3.13;;;;;;;41.26;28.25;101141.94;5029991;28;20120;-84
2021/07/19 08:05:10;;;;;;;7.72;3.20;;;;;;;41.22;27.68;101140.91;5015967;28;20104;-85
2021/07/19 08:07:36;;;;;;;7.38;3.40;;;;;;;41.43;27.67;101146.97;5017219;28;20057;-85
2021/07/19 08:10:03;;;;;;;51.33;8.23;;;;;;;41.20;27.74;101138.44;5030167;28;20163;-86
2021/07/19 08:12:28;;;;;;;11.93;4.72;;;;;;;41.33;28.72;101147.91;5017803;28;20029;-85
2021/07/19 08:14:54;;;;;;;6.93;3.53;;;;;;;41.97;28.42;101139.41;5031149;28;20053;-87
2021/07/19 08:17:19;;;;;;;6.30;3.65;;;;;;;42.15;28.45;101146.88;5030513;28;20021;-86
2021/07/19 08:19:45;;;;;;;9.43;4.00;;;;;;;41.80;27.63;101143.47;5028226;28;20447;-86
2021/07/19 08:22:14;;;;;;;25.67;5.93;;;;;;;42.08;26.92;101140.09;5029850;28;20033;-88
2021/07/19 08:24:42;;;;;;;11.57;3.63;;;;;;;41.78;27.69;101142.13;5030513;28;20026;-87
2021/07/19 08:27:09;;;;;;;10.52;4.13;;;;;;;42.00;27.46;101145.09;5012400;28;20025;-88
2021/07/19 08:29:34;;;;;;;19.23;5.35;;;;;;;42.07;28.10;101144.78;5026694;28;20105;-87
2021/07/19 08:32:00;;;;;;;44.17;7.25;;;;;;;42.48;27.45;101137.81;5038461;28;20105;-86
2021/07/19 08:34:25;;;;;;;12.50;4.90;;;;;;;42.16;26.64;101143.00;5032279;28;20112;-86
2021/07/19 08:36:51;;;;;;;6.40;3.58;;;;;;;42.69;26.93;101143.81;5034917;28;20530;-87
2021/07/19 08:39:17;;;;;;;5.30;3.40;;;;;;;42.99;26.23;101142.44;5034558;28;20049;-87
2021/07/19 08:41:42;;;;;;;7.10;3.00;;;;;;;43.45;27.35;101140.72;5034368;28;20507;-87
2021/07/19 08:44:10;;;;;;;6.10;2.90;;;;;;;43.86;26.42;101142.63;5034575;28;20041;-87
2021/07/19 08:46:39;;;;;;;8.65;3.40;;;;;;;43.89;26.07;101131.75;5033808;28;20072;-87
2021/07/19 08:49:05;;;;;;;7.28;3.22;;;;;;;43.54;26.08;101138.88;5034760;28;20171;-87
2021/07/19 08:51:32;;;;;;;6.85;3.17;;;;;;;43.87;25.41;101136.78;5030261;28;20030;-87
2021/07/19 08:54:01;;;;;;;7.65;3.15;;;;;;;43.57;25.99;101136.31;5034673;28;20108;-87
2021/07/19 08:56:31;;;;;;;5.13;3.42;;;;;;;42.50;27.25;101124.53;5020723;28;20029;-87
2021/07/19 08:58:57;;;;;;;5.22;3.40;;;;;;;43.41;26.03;101136.94;5015218;28;20051;-87
2021/07/19 09:01:23;;;;;;;4.50;3.28;;;;;;;43.35;26.08;101128.78;5014881;28;20030;-87
2021/07/19 09:03:49;;;;;;;7.25;3.78;;;;;;;43.48;26.44;101123.53;5032066;28;20032;-87
2021/07/19 09:06:14;;;;;;;6.47;3.90;;;;;;;43.85;25.57;101124.41;5034734;28;20045;-87
2021/07/19 09:08:50;;;;;;;4.50;2.92;;;;;;;44.46;24.83;101117.38;5034654;28;20144;-87
2021/07/19 09:11:17;;;;;;;6.35;3.42;;;;;;;44.46;24.71;101111.03;5034533;28;20108;-87
2021/07/19 09:14:00;;;;;;;7.97;3.35;;;;;;;44.66;25.92;101120.78;5031166;28;20053;-87
2021/07/19 09:16:37;;;;;;;5.18;3.15;;;;;;;44.71;25.04;101118.69;5033132;28;20396;-87
2021/07/19 09:19:08;;;;;;;5.65;3.28;;;;;;;44.73;25.65;101115.59;5031841;28;20033;-87
2021/07/19 09:21:35;;;;;;;7.00;2.85;;;;;;;45.06;26.10;101116.09;5033237;28;20475;-87
2021/07/19 09:24:11;;;;;;;5.07;3.08;;;;;;;45.45;25.71;101114.41;5033060;28;20040;-88
2021/07/19 09:26:39;;;;;;;5.35;3.17;;;;;;;45.50;24.36;101105.13;5033134;28;20025;-87
2021/07/19 09:29:06;;;;;;;5.03;3.38;;;;;;;45.32;24.62;101105.13;5033281;28;20120;-88
2021/07/19 09:31:37;;;;;;;6.85;3.28;;;;;;;45.75;24.44;101108.28;5025147;28;20370;-87
2021/07/19 09:34:36;;;;;;;8.32;3.20;;;;;;;45.97;24.32;101108.09;5030272;28;20075;-89
2021/07/19 09:37:06;;;;;;;6.82;3.30;;;;;;;45.92;24.13;101113.84;5019239;28;20491;-89
2021/07/19 09:39:45;;;;;;;;;;;;;;;46.25;24.24;101110.53;5028885;28;20128;-89
2021/07/19 09:42:13;;;;;;;8.00;3.00;;;;;;;46.54;23.72;101115.41;5027411;28;19917;-89
2021/07/19 09:44:40;;;;;;;5.55;3.50;;;;;;;46.02;24.14;101110.72;5030546;28;20033;-89
2021/07/19 09:47:12;;;;;;;6.07;3.03;;;;;;;46.43;24.11;101108.56;5031997;28;20061;-89
2021/07/19 09:49:38;;;;;;;3.92;3.38;;;;;;;45.74;23.97;101115.81;5032396;28;20083;-89
2021/07/19 09:52:07;;;;;;;7.53;3.30;;;;;;;45.50;24.16;101117.06;5031530;28;20400;-88
2021/07/19 09:54:35;;;;;;;5.13;2.97;;;;;;;45.16;24.99;101103.88;5031883;28;20029;-88
2021/07/19 09:57:00;;;;;;;7.53;3.35;;;;;;;45.80;24.77;101108.94;5032724;28;20026;-88
2021/07/19 09:59:26;;;;;;;12.50;3.50;;;;;;;46.06;24.86;101108.94;5031385;28;20065;-88
2021/07/19 10:01:52;;;;;;;5.60;3.35;;;;;;;45.09;25.12;101107.13;5031107;28;20022;-88
2021/07/19 10:04:18;;;;;;;4.43;2.80;;;;;;;46.13;24.46;101107.63;5030918;28;20052;-88
2021/07/19 10:06:47;;;;;;;6.03;3.53;;;;;;;46.48;23.63;101100.88;5029749;28;20030;-88
2021/07/19 10:09:14;;;;;;;6.82;3.15;;;;;;;46.58;23.26;101101.69;5029715;28;20112;-87
2021/07/19 10:11:43;;;;;;;5.85;3.22;;;;;;;46.47;23.38;101104.81;5032013;28;20033;-88
2021/07/19 10:14:09;;;;;;;4.45;2.83;;;;;;;46.56;24.04;101101.19;5029958;28;20032;-87
2021/07/19 10:16:36;;;;;;;5.60;3.13;;;;;;;46.63;23.11;101107.06;5028764;28;20036;-87
2021/07/19 10:19:04;;;;;;;6.90;2.90;;;;;;;46.72;22.34;101109.78;5031660;28;20124;-88
2021/07/19 10:21:32;;;;;;;6.75;2.70;;;;;;;46.94;22.56;101105.97;5025133;28;20029;-88
2021/07/19 10:24:03;;;;;;;6.13;2.92;;;;;;;45.44;24.06;101101.72;5029340;28;20032;-88
2021/07/19 10:26:30;;;;;;;3.33;2.30;;;;;;;46.05;20.48;101098.97;5023280;28;20130;-89
2021/07/19 10:28:56;;;;;;;5.32;2.50;;;;;;;46.78;21.12;101098.16;5031730;28;20484;-89
2021/07/19 10:31:22;;;;;;;4.17;1.93;;;;;;;46.71;21.08;101097.88;5025040;28;20620;-89
2021/07/19 10:33:49;;;;;;;4.70;2.10;;;;;;;46.31;21.53;101095.34;5031513;28;20127;-89
2021/07/19 10:36:21;;;;;;;4.50;2.50;;;;;;;46.68;20.13;101093.78;5034813;28;20029;-89
2021/07/19 10:38:48;;;;;;;3.47;2.15;;;;;;;47.05;20.69;101096.09;5038486;28;20035;-89
2021/07/19 10:41:13;;;;;;;5.43;2.75;;;;;;;47.10;20.29;101098.66;5032341;28;20088;-89
2021/07/19 10:43:39;;;;;;;4.18;2.47;;;;;;;47.42;20.46;101094.41;5031441;28;20115;-89
2021/07/19 10:46:10;;;;;;;2.55;2.03;;;;;;;47.77;20.15;101094.16;5031936;28;20522;-89
2021/07/19 10:48:36;;;;;;;5.50;2.13;;;;;;;47.17;19.95;101093.41;5028087;28;20033;-90
2021/07/19 10:51:14;;;;;;;7.07;2.50;;;;;;;47.56;19.87;101094.19;5030646;28;20090;-89
2021/07/19 10:53:40;;;;;;;2.92;2.13;;;;;;;47.44;19.67;101094.09;5021689;28;20022;-87
2021/07/19 10:56:11;;;;;;;3.15;2.30;;;;;;;47.39;19.25;101094.28;5022990;28;20518;-87
2021/07/19 10:58:38;;;;;;;2.50;2.10;;;;;;;47.84;19.63;101096.41;5024737;28;20036;-89
2021/07/19 11:01:04;;;;;;;3.85;2.20;;;;;;;48.15;18.93;101092.34;5025955;28;20538;-87
2021/07/19 11:03:40;;;;;;;3.90;2.42;;;;;;;48.42;18.85;101097.31;5019169;28;20034;-87
2021/07/19 11:06:05;;;;;;;4.00;2.20;;;;;;;48.23;17.83;101097.03;5020311;28;20095;-88
2021/07/19 11:08:31;;;;;;;4.18;2.33;;;;;;;47.30;18.25;101090.72;5024026;28;20025;-87
2021/07/19 11:10:58;;;;;;;3.13;2.10;;;;;;;47.60;18.38;101086.78;5017359;28;20163;-88
2021/07/19 11:13:34;;;;;;;2.65;2.40;;;;;;;48.11;18.28;101088.63;5023320;28;20384;-88
2021/07/19 11:16:12;;;;;;;3.90;2.55;;;;;;;47.44;18.65;101088.53;5018011;28;20038;-88
2021/07/19 11:18:37;;;;;;;5.80;2.15;;;;;;;47.31;18.54;101081.25;5023465;28;20036;-88
2021/07/19 11:21:03;;;;;;;5.20;2.65;;;;;;;47.33;18.83;101081.72;5019501;28;20388;-88
2021/07/19 11:23:32;;;;;;;3.72;2.53;;;;;;;47.73;19.38;101084.06;5018098;28;20032;-89
2021/07/19 11:25:59;;;;;;;4.03;2.63;;;;;;;47.35;18.56;101077.44;5020421;28;20108;-89